Time;durP1;ratioP1;P1;durP2;ratioP2;P2;SDS_P1;SDS_P2;PMS_P1;PMS_P2;Temp;Humidity;BMP_temperature;BMP_pressure;BME280_temperature;BME280_humidity;BME280_pressure;Samples;Min_cycle;Max_cycle;Signal;HPM_P1;HPM_P2
2024/01/25 00:00:33;;;;;;;16.08;14.48;;;;;;;3.60;65.68;95440.72;5095386;28;20212;-70
2024/01/25 00:03:00;;;;;;;15.52;14.07;;;;;;;3.64;65.57;95445.56;5095097;28;20208;-70
2024/01/25 00:05:28;;;;;;;15.73;14.18;;;;;;;3.67;64.68;95429.41;5094368;28;20616;-70
2024/01/25 00:07:55;;;;;;;15.95;14.45;;;;;;;3.71;64.50;95432.34;5094798;28;20235;-70
2024/01/25 00:10:23;;;;;;;16.02;14.35;;;;;;;3.72;64.57;95423.84;5095812;28;20218;-70
2024/01/25 00:12:50;;;;;;;15.32;13.93;;;;;;;3.73;64.15;95411.03;5093771;28;20219;-70
2024/01/25 00:15:17;;;;;;;15.77;14.18;;;;;;;3.76;63.76;95396.78;5095206;28;20188;-70
2024/01/25 00:17:44;;;;;;;14.52;13.13;;;;;;;3.78;63.82;95381.75;5094596;28;20196;-70
2024/01/25 00:20:13;;;;;;;13.23;12.00;;;;;;;3.82;63.04;95360.91;5095454;28;20211;-70
2024/01/25 00:22:42;;;;;;;12.38;11.27;;;;;;;3.84;62.89;95350.50;5095195;28;20216;-70
2024/01/25 00:25:09;;;;;;;13.70;12.50;;;;;;;3.85;63.33;95330.31;5095118;28;20200;-70
2024/01/25 00:27:38;;;;;;;15.45;13.85;;;;;;;3.88;63.28;95331.59;5095209;28;20288;-70
2024/01/25 00:30:06;;;;;;;16.15;14.63;;;;;;;3.90;63.46;95336.75;5111784;28;20231;-70
2024/01/25 00:32:32;;;;;;;16.85;15.27;;;;;;;3.85;63.52;95324.84;5114978;28;20291;-70
2024/01/25 00:35:00;;;;;;;17.40;15.63;;;;;;;3.86;63.72;95331.91;5115632;28;20211;-70
2024/01/25 00:37:27;;;;;;;18.08;16.27;;;;;;;3.82;63.67;95332.84;5098240;28;20199;-70
2024/01/25 00:39:55;;;;;;;16.83;15.23;;;;;;;3.77;63.97;95347.34;5097485;28;20604;-70
2024/01/25 00:42:23;;;;;;;17.67;16.08;;;;;;;3.77;64.51;95354.75;5097734;28;20229;-71
2024/01/25 00:44:52;;;;;;;21.95;19.70;;;;;;;3.77;64.69;95352.00;5115824;28;20206;-70
2024/01/25 00:47:20;;;;;;;26.50;22.65;;;;;;;3.73;64.98;95356.47;5115555;28;20183;-70
2024/01/25 00:49:47;;;;;;;23.92;21.40;;;;;;;3.68;64.99;95343.72;5115484;28;20226;-70
2024/01/25 00:52:15;;;;;;;21.70;19.50;;;;;;;3.67;65.14;95336.66;5117776;28;20246;-70
2024/01/25 00:54:43;;;;;;;17.83;16.02;;;;;;;3.71;65.07;95343.13;5119004;28;20260;-70
2024/01/25 00:57:11;;;;;;;15.20;13.70;;;;;;;3.78;64.56;95338.09;5118810;28;20240;-70
2024/01/25 00:59:39;;;;;;;12.95;11.75;;;;;;;3.86;63.96;95337.38;5119076;28;20248;-70
2024/01/25 01:02:12;;;;;;;12.13;10.93;;;;;;;3.90;63.99;95337.56;5101677;28;20195;-70
2024/01/25 01:04:39;;;;;;;10.48;9.48;;;;;;;3.95;63.86;95347.56;5101404;28;20192;-70
2024/01/25 01:07:07;;;;;;;8.20;7.40;;;;;;;3.99;63.15;95341.19;5118795;28;20237;-70
2024/01/25 01:09:36;;;;;;;9.15;8.25;;;;;;;4.02;63.28;95348.78;5119053;28;20273;-70
2024/01/25 01:12:03;;;;;;;9.55;8.63;;;;;;;4.03;63.08;95334.03;5118557;28;20180;-70
2024/01/25 01:14:30;;;;;;;9.15;8.27;;;;;;;4.05;63.30;95339.19;5118335;28;20239;-70
2024/01/25 01:16:57;;;;;;;8.90;8.00;;;;;;;4.05;63.70;95331.00;5100794;28;20213;-70
2024/01/25 01:19:26;;;;;;;9.13;8.23;;;;;;;4.03;63.01;95322.28;5100737;28;20231;-70
2024/01/25 01:21:53;;;;;;;7.82;7.10;;;;;;;4.03;63.32;95297.72;5100676;28;20203;-70
2024/01/25 01:24:19;;;;;;;7.15;6.55;;;;;;;4.07;63.33;95296.03;5118163;28;20179;-70
2024/01/25 01:26:48;;;;;;;6.93;6.28;;;;;;;4.14;62.53;95276.47;5118138;28;20249;-70
2024/01/25 01:29:15;;;;;;;7.20;6.45;;;;;;;4.19;62.77;95285.38;5097256;28;20235;-70
2024/01/25 01:31:42;;;;;;;6.70;6.10;;;;;;;4.24;61.88;95292.63;5097961;28;20188;-70
2024/01/25 01:34:09;;;;;;;6.63;5.88;;;;;;;4.28;61.80;95290.91;5097753;28;20204;-70
2024/01/25 01:36:38;;;;;;;6.22;5.57;;;;;;;4.31;61.82;95279.38;5098060;28;20188;-70
2024/01/25 01:39:05;;;;;;;5.78;5.18;;;;;;;4.33;61.37;95277.94;5097709;28;20184;-70
2024/01/25 01:41:33;;;;;;;5.43;4.93;;;;;;;4.34;61.85;95278.75;5097353;28;20196;-70
2024/01/25 01:44:00;;;;;;;5.72;5.22;;;;;;;4.36;62.42;95271.06;5096713;28;20231;-70
2024/01/25 01:46:34;;;;;;;5.57;5.07;;;;;;;4.39;62.10;95264.16;5096986;28;20204;-70
2024/01/25 01:49:01;;;;;;;6.18;5.57;;;;;;;4.39;63.39;95261.44;5097244;28;20192;-70
2024/01/25 01:51:30;;;;;;;5.60;5.10;;;;;;;4.42;63.96;95256.16;5097073;28;20208;-70
2024/01/25 01:53:59;;;;;;;5.28;4.88;;;;;;;4.48;63.71;95254.13;5096455;28;20220;-70
2024/01/25 01:56:28;;;;;;;4.88;4.38;;;;;;;4.55;64.12;95249.03;5097051;28;20267;-70
2024/01/25 01:58:56;;;;;;;4.00;3.60;;;;;;;4.68;64.03;95248.16;5096493;28;20207;-70
2024/01/25 02:01:23;;;;;;;2.22;1.45;;;;;;;4.91;64.16;95239.97;5097050;28;20220;-70
2024/01/25 02:03:50;;;;;;;1.85;1.75;;;;;;;5.23;63.72;95228.72;5096213;28;20567;-70
2024/01/25 02:06:17;;;;;;;1.20;1.10;;;;;;;5.54;62.64;95227.84;5096647;28;20208;-70
2024/01/25 02:08:44;;;;;;;1.45;1.10;;;;;;;5.78;62.15;95221.97;5097252;28;20185;-70
2024/01/25 02:11:13;;;;;;;1.40;1.30;;;;;;;5.98;62.04;95232.34;5097454;28;20253;-70
2024/01/25 02:13:40;;;;;;;1.73;1.20;;;;;;;6.17;61.26;95229.31;5096244;28;20228;-70
2024/01/25 02:16:09;;;;;;;1.67;1.27;;;;;;;6.30;60.98;95219.31;5095849;28;20236;-70
2024/01/25 02:18:36;;;;;;;1.40;1.30;;;;;;;6.37;60.50;95229.81;5097543;28;20503;-70
2024/01/25 02:21:03;;;;;;;1.50;1.15;;;;;;;6.44;60.91;95227.41;5097279;28;20217;-70
2024/01/25 02:23:31;;;;;;;1.58;1.33;;;;;;;6.48;60.61;95237.38;5097187;28;20192;-70
2024/01/25 02:25:58;;;;;;;1.42;1.33;;;;;;;6.53;59.94;95247.38;5096722;28;20608;-70
2024/01/25 02:28:25;;;;;;;2.15;1.95;;;;;;;6.43;59.23;95242.22;5098329;28;20352;-70
2024/01/25 02:30:52;;;;;;;2.40;2.20;;;;;;;6.28;59.28;95240.75;5099119;28;20230;-70
2024/01/25 02:33:19;;;;;;;2.60;2.40;;;;;;;6.10;59.79;95231.72;5099174;28;20215;-70
2024/01/25 02:35:46;;;;;;;2.40;2.20;;;;;;;5.96;59.87;95239.28;5117083;28;20215;-71
2024/01/25 02:38:13;;;;;;;2.53;2.33;;;;;;;5.89;59.94;95230.69;5116766;28;20209;-72
2024/01/25 02:40:42;;;;;;;2.80;2.60;;;;;;;5.78;59.85;95236.47;5116926;28;20567;-72
2024/01/25 02:43:09;;;;;;;2.50;2.30;;;;;;;5.76;59.96;95237.91;5100065;28;20199;-71
2024/01/25 02:45:36;;;;;;;2.42;2.22;;;;;;;5.75;59.64;95226.16;5116081;28;20227;-71
2024/01/25 02:48:03;;;;;;;2.65;2.20;;;;;;;5.77;59.81;95218.44;5116986;28;20184;-71
2024/01/25 02:50:31;;;;;;;2.13;1.85;;;;;;;5.84;60.35;95214.41;5117190;28;20252;-71
2024/01/25 02:52:58;;;;;;;1.30;1.20;;;;;;;6.01;60.54;95214.47;5117064;28;20533;-71
2024/01/25 02:55:25;;;;;;;1.23;1.10;;;;;;;6.19;60.42;95223.50;5098485;28;20299;-70
2024/01/25 02:57:54;;;;;;;1.83;1.20;;;;;;;6.32;60.83;95217.09;5099073;28;20184;-70
2024/01/25 03:00:21;;;;;;;1.23;1.10;;;;;;;6.45;60.97;95202.41;5116833;28;20219;-70
2024/01/25 03:02:48;;;;;;;1.20;1.20;;;;;;;6.55;60.71;95212.22;5099192;28;20199;-70
2024/01/25 03:05:15;;;;;;;2.00;1.40;;;;;;;6.61;60.79;95210.94;5116933;28;20218;-70
2024/01/25 03:07:43;;;;;;;1.02;1.00;;;;;;;6.65;61.84;95209.16;5099281;28;20263;-70
2024/01/25 03:10:10;;;;;;;1.20;1.10;;;;;;;6.72;61.72;95216.91;5099435;28;20192;-70
2024/01/25 03:12:38;;;;;;;1.13;1.00;;;;;;;6.77;61.26;95208.50;5116529;28;20232;-70
2024/01/25 03:15:07;;;;;;;1.15;1.05;;;;;;;6.83;60.90;95217.38;5099203;28;20250;-70
2024/01/25 03:17:34;;;;;;;1.23;1.13;;;;;;;6.86;60.66;95206.56;5116051;28;20486;-70
2024/01/25 03:20:02;;;;;;;2.47;1.30;;;;;;;6.89;60.81;95210.56;5098880;28;20283;-70
2024/01/25 03:22:29;;;;;;;1.48;1.20;;;;;;;6.89;61.04;95207.81;5116472;28;20200;-70
2024/01/25 03:24:56;;;;;;;1.30;1.20;;;;;;;6.88;60.86;95219.94;5098347;28;20187;-70
2024/01/25 03:27:23;;;;;;;1.42;1.08;;;;;;;6.89;60.76;95216.84;5116417;28;20184;-70
2024/01/25 03:29:50;;;;;;;1.20;1.10;;;;;;;6.88;61.33;95204.28;5098402;28;20231;-70
2024/01/25 03:32:18;;;;;;;1.90;1.73;;;;;;;6.89;61.46;95208.63;5098527;28;20184;-70
2024/01/25 03:34:45;;;;;;;1.75;1.63;;;;;;;6.89;61.07;95213.31;5098487;28;20247;-70
2024/01/25 03:37:12;;;;;;;2.50;2.28;;;;;;;6.88;60.86;95193.31;5098582;28;20187;-70
2024/01/25 03:39:39;;;;;;;1.58;1.30;;;;;;;6.88;60.34;95189.78;5115925;28;20204;-70
2024/01/25 03:42:06;;;;;;;1.60;1.50;;;;;;;6.88;60.21;95176.84;5115934;28;20203;-70
2024/01/25 03:44:33;;;;;;;1.95;1.50;;;;;;;6.89;59.74;95183.94;5116227;28;20180;-70
2024/01/25 03:47:00;;;;;;;2.47;1.90;;;;;;;6.91;59.26;95187.19;5115537;28;20202;-70
2024/01/25 03:49:29;;;;;;;1.50;1.40;;;;;;;6.91;59.48;95189.91;5115870;28;20234;-70
2024/01/25 03:51:56;;;;;;;1.63;1.52;;;;;;;6.92;58.78;95190.72;5097956;28;20643;-70
2024/01/25 03:54:23;;;;;;;1.40;1.30;;;;;;;6.92;59.14;95175.06;5082025;28;20261;-70
2024/01/25 03:56:50;;;;;;;1.42;1.30;;;;;;;6.92;59.12;95160.56;5097931;28;20196;-70
2024/01/25 03:59:17;;;;;;;1.55;1.45;;;;;;;6.94;58.91;95166.53;5115719;28;20219;-70
2024/01/25 04:01:46;;;;;;;2.15;1.30;;;;;;;6.97;59.17;95146.66;5097913;28;20176;-70
2024/01/25 04:04:15;;;;;;;1.33;1.23;;;;;;;7.00;59.03;95148.75;5098402;28;20219;-70
2024/01/25 04:06:44;;;;;;;1.50;1.40;;;;;;;7.03;58.53;95152.78;5114411;28;20203;-70
2024/01/25 04:09:11;;;;;;;1.65;1.48;;;;;;;7.00;58.41;95156.97;5098624;28;20219;-70
2024/01/25 04:11:38;;;;;;;2.30;1.50;;;;;;;7.00;58.56;95156.97;5098052;28;20241;-70
2024/01/25 04:14:05;;;;;;;2.40;1.70;;;;;;;7.01;58.32;95155.88;5098262;28;20339;-70
2024/01/25 04:16:34;;;;;;;1.98;1.77;;;;;;;7.03;58.65;95161.00;5097913;28;20196;-70
2024/01/25 04:19:01;;;;;;;2.22;2.03;;;;;;;7.05;58.49;95156.00;5115946;28;20188;-71
2024/01/25 04:21:28;;;;;;;1.90;1.65;;;;;;;7.07;58.33;95160.03;5097647;28;20224;-71
2024/01/25 04:23:57;;;;;;;1.75;1.50;;;;;;;7.08;58.34;95155.34;5115992;28;20681;-71
2024/01/25 04:26:24;;;;;;;1.80;1.58;;;;;;;7.11;58.10;95140.97;5116546;28;20574;-71
2024/01/25 04:28:54;;;;;;;1.63;1.52;;;;;;;7.12;57.38;95151.63;5119695;28;20238;-71
2024/01/25 04:31:21;;;;;;;2.80;1.52;;;;;;;7.17;57.36;95143.19;5101695;28;20210;-70
2024/01/25 04:33:49;;;;;;;2.38;1.65;;;;;;;7.19;57.04;95148.38;5119697;28;20210;-70
2024/01/25 04:36:16;;;;;;;2.22;1.50;;;;;;;7.20;57.21;95152.72;5119107;28;20700;-71
2024/01/25 04:38:43;;;;;;;2.38;1.73;;;;;;;7.22;56.61;95172.38;5101788;28;20203;-72
2024/01/25 04:41:11;;;;;;;1.70;1.60;;;;;;;7.23;56.46;95176.75;5119036;28;20184;-71
2024/01/25 04:43:38;;;;;;;1.95;1.75;;;;;;;7.18;56.91;95191.44;5101071;28;20229;-71
2024/01/25 04:46:06;;;;;;;2.55;2.35;;;;;;;7.02;56.55;95197.81;5119205;28;20199;-71
2024/01/25 04:48:33;;;;;;;3.47;2.65;;;;;;;6.83;57.21;95201.72;5119240;28;20195;-71
2024/01/25 04:51:00;;;;;;;3.55;2.95;;;;;;;6.65;57.31;95202.88;5101987;28;20248;-69
2024/01/25 04:53:28;;;;;;;3.50;3.20;;;;;;;6.48;57.61;95206.44;5118860;28;20726;-72
2024/01/25 04:55:56;;;;;;;3.42;3.13;;;;;;;6.32;57.88;95219.00;5118592;28;20639;-71
2024/01/25 04:58:25;;;;;;;3.75;3.38;;;;;;;6.14;58.39;95216.28;5118775;28;20292;-71
2024/01/25 05:00:52;;;;;;;6.38;4.22;;;;;;;5.98;58.48;95229.59;5101268;28;20204;-72
2024/01/25 05:03:19;;;;;;;5.25;3.88;;;;;;;5.93;58.59;95240.72;5118601;28;20199;-72
2024/01/25 05:05:46;;;;;;;3.40;3.10;;;;;;;5.87;58.62;95236.47;5101589;28;20196;-72
2024/01/25 05:08:13;;;;;;;3.45;3.15;;;;;;;5.83;58.67;95230.03;5119060;28;20218;-72
2024/01/25 05:10:40;;;;;;;2.80;2.60;;;;;;;5.82;58.46;95220.22;5101708;28;20204;-72
2024/01/25 05:13:08;;;;;;;3.25;2.70;;;;;;;5.85;58.76;95227.78;5100583;28;20192;-72
2024/01/25 05:15:36;;;;;;;2.40;2.20;;;;;;;5.95;58.85;95245.84;5100983;28;20245;-72
2024/01/25 05:18:04;;;;;;;2.33;1.90;;;;;;;6.06;58.64;95240.88;5118585;28;20241;-72
2024/01/25 05:20:34;;;;;;;2.50;1.90;;;;;;;6.19;57.80;95254.44;5100905;28;20210;-72
2024/01/25 05:23:01;;;;;;;1.92;1.70;;;;;;;6.34;57.17;95255.91;5100651;28;20204;-73
2024/01/25 05:25:28;;;;;;;2.85;1.80;;;;;;;6.46;56.71;95258.00;5101427;28;20295;-70
2024/01/25 05:27:55;;;;;;;1.73;1.50;;;;;;;6.56;56.05;95254.94;5100780;28;20630;-69
2024/01/25 05:30:22;;;;;;;1.58;1.48;;;;;;;6.62;55.98;95255.59;5096791;28;20236;-70
2024/01/25 05:32:53;;;;;;;2.60;1.60;;;;;;;6.66;55.84;95260.09;5097938;28;20607;-73
2024/01/25 05:35:20;;;;;;;2.28;1.63;;;;;;;6.71;55.51;95256.38;5098103;28;20205;-73
2024/01/25 05:37:47;;;;;;;2.17;1.70;;;;;;;6.72;55.51;95255.28;5096161;28;20249;-74
2024/01/25 05:40:14;;;;;;;1.95;1.70;;;;;;;6.77;55.04;95251.56;5098199;28;20185;-74
2024/01/25 05:42:41;;;;;;;3.00;1.90;;;;;;;6.79;55.03;95261.06;5098315;28;20193;-74
2024/01/25 05:45:09;;;;;;;1.70;1.60;;;;;;;6.80;54.77;95270.09;5098064;28;20196;-75
2024/01/25 05:47:36;;;;;;;2.58;1.80;;;;;;;6.84;54.56;95271.06;5098450;28;20195;-74
2024/01/25 05:50:05;;;;;;;1.60;1.50;;;;;;;6.87;54.24;95279.44;5098167;28;20181;-74
2024/01/25 05:52:33;;;;;;;2.28;2.08;;;;;;;6.90;54.30;95286.19;5097129;28;20216;-74
2024/01/25 05:55:00;;;;;;;1.83;1.73;;;;;;;6.88;54.50;95294.75;5097601;28;20265;-74
2024/01/25 05:57:27;;;;;;;2.13;1.92;;;;;;;6.91;54.48;95304.28;5097055;28;20215;-72
2024/01/25 05:59:54;;;;;;;2.63;2.03;;;;;;;6.93;54.82;95304.75;5096642;28;20196;-74
2024/01/25 06:02:21;;;;;;;2.40;2.20;;;;;;;6.92;54.58;95305.88;5097644;28;20184;-76
2024/01/25 06:04:48;;;;;;;2.60;2.03;;;;;;;6.91;54.87;95313.31;5096835;28;20246;-74
2024/01/25 06:07:17;;;;;;;2.80;2.60;;;;;;;6.87;54.93;95306.88;5097645;28;20257;-73
2024/01/25 06:09:47;;;;;;;3.50;3.20;;;;;;;6.80;55.24;95301.06;5097071;28;20180;-72
2024/01/25 06:12:14;;;;;;;3.63;3.20;;;;;;;6.76;55.22;95302.84;5097344;28;20228;-72
2024/01/25 06:14:41;;;;;;;4.90;3.28;;;;;;;6.74;55.62;95303.16;5097189;28;20196;-72
2024/01/25 06:17:08;;;;;;;3.78;3.33;;;;;;;6.72;55.58;95302.69;5096353;28;20219;-73
2024/01/25 06:19:35;;;;;;;3.75;2.80;;;;;;;6.72;56.14;95305.41;5113872;28;20200;-73
2024/01/25 06:22:02;;;;;;;2.95;2.70;;;;;;;6.73;55.56;95314.44;5097230;28;20188;-73
2024/01/25 06:24:31;;;;;;;3.33;2.95;;;;;;;6.77;56.10;95323.63;5097321;28;20181;-72
2024/01/25 06:26:58;;;;;;;3.47;3.00;;;;;;;6.78;55.94;95317.00;5097308;28;20196;-72
2024/01/25 06:29:25;;;;;;;3.67;3.10;;;;;;;6.77;55.59;95312.66;5095824;28;20288;-73
2024/01/25 06:31:52;;;;;;;3.78;3.22;;;;;;;6.78;56.05;95311.53;5096576;28;20200;-73
2024/01/25 06:34:19;;;;;;;3.05;2.70;;;;;;;6.83;56.01;95303.16;5095682;28;20197;-71
2024/01/25 06:36:46;;;;;;;2.95;2.30;;;;;;;6.86;55.92;95307.16;5096379;28;20193;-71
2024/01/25 06:39:14;;;;;;;3.22;2.55;;;;;;;6.90;55.74;95313.63;5096880;28;20218;-73
2024/01/25 06:41:42;;;;;;;2.30;2.10;;;;;;;6.92;55.50;95323.13;5096415;28;20196;-71
2024/01/25 06:44:10;;;;;;;2.83;2.03;;;;;;;6.95;55.58;95322.50;5095752;28;20282;-72
2024/01/25 06:46:37;;;;;;;3.22;2.30;;;;;;;6.97;56.00;95325.75;5096055;28;20200;-73
2024/01/25 06:49:04;;;;;;;4.70;3.83;;;;;;;6.94;56.15;95325.56;5096087;28;20200;-69
2024/01/25 06:51:32;;;;;;;4.60;3.70;;;;;;;6.87;55.92;95331.53;5096853;28;20185;-72
2024/01/25 06:53:59;;;;;;;4.40;4.00;;;;;;;6.84;56.21;95314.94;5096119;28;20234;-69
2024/01/25 06:56:26;;;;;;;5.25;3.58;;;;;;;6.85;56.06;95311.84;5096730;28;20216;-69
2024/01/25 06:58:54;;;;;;;4.00;3.38;;;;;;;6.92;56.02;95325.09;5095543;28;20245;-69
2024/01/25 07:01:22;;;;;;;4.13;2.58;;;;;;;6.96;55.61;95331.53;5096427;28;20196;-71
2024/01/25 07:03:50;;;;;;;4.18;2.90;;;;;;;7.02;55.64;95323.97;5095473;28;20192;-69
2024/01/25 07:06:18;;;;;;;3.22;2.38;;;;;;;7.07;55.28;95329.25;5096249;28;20192;-73
2024/01/25 07:08:46;;;;;;;3.95;3.00;;;;;;;7.10;55.60;95337.66;5095111;28;20196;-72
2024/01/25 07:11:13;;;;;;;3.30;2.67;;;;;;;7.13;55.23;95339.75;5095141;28;20228;-73
2024/01/25 07:13:42;;;;;;;2.97;2.40;;;;;;;7.11;55.55;95319.25;5096237;28;20196;-72
2024/01/25 07:16:10;;;;;;;3.50;3.20;;;;;;;7.13;55.27;95315.06;5095666;28;20629;-71
2024/01/25 07:18:37;;;;;;;5.13;3.30;;;;;;;7.13;54.77;95312.31;5096128;28;20220;-71
2024/01/25 07:21:04;;;;;;;3.65;2.97;;;;;;;7.14;55.31;95316.66;5096052;28;20253;-71
2024/01/25 07:23:34;;;;;;;5.57;3.70;;;;;;;7.14;55.23;95311.19;5095353;28;20235;-72
2024/01/25 07:26:01;;;;;;;8.23;4.90;;;;;;;7.17;55.40;95320.72;5095469;28;20208;-71
2024/01/25 07:28:28;;;;;;;6.45;3.92;;;;;;;7.18;55.27;95311.34;5097480;28;20387;-73
2024/01/25 07:30:55;;;;;;;6.63;4.57;;;;;;;7.19;54.72;95315.72;5098707;28;20223;-69
2024/01/25 07:33:23;;;;;;;6.40;4.20;;;;;;;7.15;54.79;95306.50;5098604;28;20278;-70
2024/01/25 07:35:50;;;;;;;8.10;4.40;;;;;;;7.14;54.81;95310.38;5116086;28;20544;-68
2024/01/25 07:38:17;;;;;;;5.25;3.78;;;;;;;7.11;54.28;95303.59;5117070;28;20206;-69
2024/01/25 07:40:44;;;;;;;6.63;4.68;;;;;;;7.13;54.43;95311.53;5116139;28;20217;-69
2024/01/25 07:43:11;;;;;;;8.23;4.80;;;;;;;7.13;54.61;95311.53;5116426;28;20233;-70
2024/01/25 07:45:40;;;;;;;5.47;4.20;;;;;;;7.13;54.57;95306.84;5099235;28;20188;-70
2024/01/25 07:48:07;;;;;;;4.78;3.55;;;;;;;7.13;54.59;95306.03;5116120;28;20627;-70
2024/01/25 07:50:35;;;;;;;6.65;3.92;;;;;;;7.14;54.30;95316.66;5116028;28;20191;-70
2024/01/25 07:53:03;;;;;;;6.13;4.32;;;;;;;7.20;54.36;95303.59;5115785;28;20176;-70
2024/01/25 07:55:30;;;;;;;5.70;3.83;;;;;;;7.25;54.19;95317.13;5116046;28;20204;-72
2024/01/25 07:57:57;;;;;;;5.20;3.60;;;;;;;7.26;54.17;95317.94;5115755;28;20596;-72
2024/01/25 08:00:24;;;;;;;6.28;3.67;;;;;;;7.28;53.72;95327.47;5115294;28;20191;-73
2024/01/25 08:02:51;;;;;;;6.72;4.13;;;;;;;7.29;53.43;95326.31;5097884;28;20191;-72
2024/01/25 08:05:18;;;;;;;3.67;3.22;;;;;;;7.27;53.55;95338.78;5098285;28;20577;-72
2024/01/25 08:07:48;;;;;;;3.45;2.80;;;;;;;7.26;53.47;95326.97;5115967;28;20237;-72
2024/01/25 08:10:16;;;;;;;4.65;3.30;;;;;;;7.28;53.18;95330.22;5115878;28;20210;-71
2024/01/25 08:12:44;;;;;;;4.85;2.70;;;;;;;7.28;53.13;95329.41;5098149;28;20542;-74
2024/01/25 08:15:11;;;;;;;4.47;2.90;;;;;;;7.28;53.38;95340.38;5098312;28;20212;-72
2024/01/25 08:17:38;;;;;;;3.45;2.58;;;;;;;7.30;52.73;95344.41;5116279;28;20198;-71
2024/01/25 08:20:07;;;;;;;4.95;3.47;;;;;;;7.35;53.01;95341.50;5098402;28;20200;-74
2024/01/25 08:22:34;;;;;;;4.68;2.92;;;;;;;7.38;52.60;95342.78;5115838;28;20295;-73
2024/01/25 08:25:04;;;;;;;5.68;4.60;;;;;;;7.41;52.75;95342.94;5097605;28;20195;-74
2024/01/25 08:27:31;;;;;;;4.25;3.20;;;;;;;7.45;52.54;95338.41;5098572;28;20256;-72
2024/01/25 08:29:58;;;;;;;4.85;4.40;;;;;;;7.48;51.98;95331.47;5097651;28;20279;-72
2024/01/25 08:32:25;;;;;;;3.72;3.03;;;;;;;7.48;52.20;95328.72;5115996;28;20188;-70
2024/01/25 08:34:52;;;;;;;5.20;4.65;;;;;;;7.51;52.00;95339.03;5098251;28;20223;-69
2024/01/25 08:37:19;;;;;;;7.20;5.35;;;;;;;7.53;51.84;95333.22;5114792;28;20239;-71
2024/01/25 08:39:49;;;;;;;5.10;4.22;;;;;;;7.56;51.46;95335.31;5097531;28;20245;-70
2024/01/25 08:42:18;;;;;;;5.05;4.55;;;;;;;7.58;51.73;95333.84;5115616;28;20227;-68
2024/01/25 08:44:49;;;;;;;5.93;4.85;;;;;;;7.60;51.72;95350.00;5097618;28;20244;-68
2024/01/25 08:47:16;;;;;;;4.35;3.40;;;;;;;7.57;51.48;95364.38;5115361;28;20575;-67
2024/01/25 08:49:43;;;;;;;3.97;3.17;;;;;;;7.53;51.33;95355.19;5115516;28;20199;-70
2024/01/25 08:52:10;;;;;;;4.75;3.53;;;;;;;7.53;51.53;95358.72;5115466;28;20241;-67
2024/01/25 08:54:38;;;;;;;5.78;4.40;;;;;;;7.54;51.53;95363.09;5115286;28;20188;-71
2024/01/25 08:57:06;;;;;;;5.20;4.70;;;;;;;7.58;51.57;95363.25;5115190;28;20223;-69
2024/01/25 08:59:37;;;;;;;5.47;4.80;;;;;;;7.62;51.48;95362.25;5113941;28;20196;-69
2024/01/25 09:02:06;;;;;;;6.65;4.85;;;;;;;7.66;51.55;95359.66;5115051;28;20180;-69
2024/01/25 09:04:33;;;;;;;4.85;3.85;;;;;;;7.64;51.26;95356.44;5115006;28;20191;-66
2024/01/25 09:07:00;;;;;;;8.48;6.20;;;;;;;7.62;51.37;95354.00;5115487;28;20176;-66
2024/01/25 09:09:27;;;;;;;7.47;6.05;;;;;;;7.62;51.61;95348.53;5097200;28;20195;-66
2024/01/25 09:11:54;;;;;;;6.47;5.50;;;;;;;7.63;51.78;95341.91;5098081;28;20257;-67
2024/01/25 09:14:21;;;;;;;6.78;5.25;;;;;;;7.66;51.88;95340.44;5101774;28;20195;-67
2024/01/25 09:16:50;;;;;;;8.65;7.63;;;;;;;7.65;51.97;95336.91;5117972;28;20216;-67
2024/01/25 09:19:17;;;;;;;6.45;5.35;;;;;;;7.67;51.76;95342.88;5118801;28;20249;-67
2024/01/25 09:21:44;;;;;;;5.57;4.20;;;;;;;7.70;51.50;95336.72;5101116;28;20294;-67
2024/01/25 09:24:11;;;;;;;5.18;4.05;;;;;;;7.74;51.87;95338.81;5100575;28;20250;-67
2024/01/25 09:26:38;;;;;;;6.10;4.55;;;;;;;7.78;51.90;95326.84;5100407;28;20631;-67
2024/01/25 09:29:05;;;;;;;6.55;4.30;;;;;;;7.80;51.50;95324.56;5100497;28;20235;-72
2024/01/25 09:31:33;;;;;;;8.30;5.05;;;;;;;7.83;51.58;95323.09;5100795;28;20294;-72
2024/01/25 09:34:02;;;;;;;8.07;5.70;;;;;;;7.95;51.80;95318.56;5118708;28;20259;-74
2024/01/25 09:36:29;;;;;;;9.30;6.10;;;;;;;8.19;51.90;95320.69;5100536;28;20269;-72
2024/01/25 09:38:56;;;;;;;9.73;8.43;;;;;;;8.28;50.79;95315.16;5118420;28;20207;-74
2024/01/25 09:41:23;;;;;;;7.60;6.20;;;;;;;8.24;51.06;95308.69;5118337;28;20252;-72
2024/01/25 09:43:50;;;;;;;10.95;6.43;;;;;;;8.19;51.36;95306.94;5100331;28;20227;-73
2024/01/25 09:46:17;;;;;;;6.93;5.32;;;;;;;8.15;51.42;95300.50;5117401;28;20200;-74
2024/01/25 09:48:46;;;;;;;6.25;4.85;;;;;;;8.10;50.94;95300.69;5116944;28;20196;-74
2024/01/25 09:51:15;;;;;;;5.40;4.43;;;;;;;8.09;51.39;95292.78;5100486;28;20257;-73
2024/01/25 09:53:42;;;;;;;6.78;4.25;;;;;;;8.12;51.22;95273.69;5101026;28;20223;-72
2024/01/25 09:56:10;;;;;;;6.93;4.25;;;;;;;8.17;51.17;95284.50;5117648;28;20207;-74
2024/01/25 09:58:41;;;;;;;6.47;3.60;;;;;;;8.19;51.20;95273.16;5100412;28;20238;-73
2024/01/25 10:01:13;;;;;;;5.32;3.90;;;;;;;8.20;51.05;95280.25;5117732;28;20218;-71
2024/01/25 10:03:43;;;;;;;6.32;4.18;;;;;;;8.17;50.96;95276.25;5099970;28;20206;-68
2024/01/25 10:06:10;;;;;;;5.45;4.40;;;;;;;8.15;51.01;95264.78;5117613;28;20229;-69
2024/01/25 10:08:38;;;;;;;5.07;4.50;;;;;;;8.18;50.99;95263.31;5118040;28;20279;-68
2024/01/25 10:11:05;;;;;;;6.03;3.97;;;;;;;8.22;51.19;95256.03;5117592;28;20223;-69
2024/01/25 10:13:32;;;;;;;5.25;4.22;;;;;;;8.25;51.35;95257.31;5100132;28;20203;-71
2024/01/25 10:15:59;;;;;;;7.07;4.30;;;;;;;8.29;51.46;95245.31;5118112;28;20219;-73
2024/01/25 10:18:27;;;;;;;6.80;4.93;;;;;;;8.34;51.28;95250.59;5099882;28;20195;-74
2024/01/25 10:20:54;;;;;;;7.75;5.10;;;;;;;8.37;51.36;95257.38;5117415;28;20179;-74
2024/01/25 10:23:21;;;;;;;9.88;6.40;;;;;;;8.49;51.69;95249.22;5117253;28;20268;-74
2024/01/25 10:25:50;;;;;;;7.65;5.20;;;;;;;8.58;51.18;95255.47;5117610;28;20184;-73
2024/01/25 10:28:17;;;;;;;7.88;5.45;;;;;;;8.67;50.85;95249.88;5100002;28;20192;-73
2024/01/25 10:30:44;;;;;;;7.93;6.07;;;;;;;8.75;51.27;95259.19;5117095;28;20213;-73
2024/01/25 10:33:12;;;;;;;9.73;6.45;;;;;;;8.78;51.69;95258.53;5099489;28;20195;-72
2024/01/25 10:35:39;;;;;;;5.82;4.47;;;;;;;8.86;51.29;95252.97;5099622;28;20661;-71
2024/01/25 10:38:06;;;;;;;6.28;5.53;;;;;;;8.89;50.89;95252.28;5099008;28;20199;-72
2024/01/25 10:40:34;;;;;;;8.40;7.28;;;;;;;8.92;50.87;95256.31;5099503;28;20202;-72
2024/01/25 10:43:04;;;;;;;7.78;5.70;;;;;;;8.86;50.77;95252.97;5116775;28;20184;-72
2024/01/25 10:45:31;;;;;;;6.28;5.18;;;;;;;8.88;51.04;95242.41;5099705;28;20195;-72
2024/01/25 10:47:59;;;;;;;8.20;6.30;;;;;;;9.03;57.78;95229.97;5099044;28;20188;-72
2024/01/25 10:50:27;;;;;;;5.13;4.55;;;;;;;9.18;53.59;95235.97;5117149;28;20252;-71
2024/01/25 10:52:54;;;;;;;6.30;4.35;;;;;;;9.28;51.68;95225.34;5116767;28;20256;-69
2024/01/25 10:55:21;;;;;;;6.60;4.38;;;;;;;9.25;49.88;95231.53;5099490;28;20196;-69
2024/01/25 10:57:49;;;;;;;5.53;4.10;;;;;;;9.17;48.54;95232.44;5098974;28;20223;-69
2024/01/25 11:00:17;;;;;;;7.20;6.20;;;;;;;9.07;48.19;95222.66;5116469;28;20241;-69
2024/01/25 11:02:44;;;;;;;5.45;4.00;;;;;;;9.02;48.54;95217.38;5116759;28;20184;-69
2024/01/25 11:05:13;;;;;;;5.68;3.67;;;;;;;9.03;48.55;95213.47;5116422;28;20208;-70
2024/01/25 11:07:44;;;;;;;4.40;3.38;;;;;;;8.96;48.44;95202.22;5098483;28;20252;-70
2024/01/25 11:10:15;;;;;;;9.90;8.68;;;;;;;8.95;48.71;95192.38;5099782;28;20217;-70
2024/01/25 11:12:50;;;;;;;6.10;4.15;;;;;;;8.94;48.51;95188.00;5098498;28;20304;-70
2024/01/25 11:15:32;;;;;;;5.20;2.88;;;;;;;8.93;48.60;95189.13;5116605;28;20187;-71
2024/01/25 11:17:59;;;;;;;5.18;3.28;;;;;;;8.95;48.71;95180.56;5098641;28;20658;-70
2024/01/25 11:20:27;;;;;;;3.97;3.40;;;;;;;8.90;48.94;95176.88;5098577;28;20582;-71
2024/01/25 11:22:59;;;;;;;4.28;3.30;;;;;;;8.90;48.59;95176.88;5116507;28;20252;-71
2024/01/25 11:25:28;;;;;;;4.75;3.63;;;;;;;8.87;48.70;95174.00;5098984;28;20195;-71
2024/01/25 11:27:56;;;;;;;5.90;3.85;;;;;;;8.83;48.47;95182.13;5098397;28;20615;-71
2024/01/25 11:30:27;;;;;;;6.47;3.88;;;;;;;8.78;48.55;95176.81;5095089;28;20231;-72
2024/01/25 11:32:54;;;;;;;4.35;2.92;;;;;;;8.76;48.48;95181.88;5094584;28;20245;-72
2024/01/25 11:35:21;;;;;;;5.35;2.90;;;;;;;8.67;48.40;95181.94;5094904;28;20223;-70
2024/01/25 11:37:51;;;;;;;4.88;3.22;;;;;;;8.64;48.18;95165.31;5094416;28;20661;-69
2024/01/25 11:40:18;;;;;;;4.15;2.85;;;;;;;8.58;48.49;95181.25;5095293;28;20189;-70